Date,TemperatureHighF,TemperatureAvgF,TemperatureLowF,DewpointHighF,DewpointAvgF,DewpointLowF,HumidityHigh,HumidityAvg,HumidityLow,PressureMaxIn,PressureMinIn,WindSpeedMaxMPH,WindSpeedAvgMPH,GustSpeedMaxMPH,PrecipitationSumIn
2013-1-1,62,43,34,38,34,31,97,76,33,29.95,29.85,6,1,11,0.00
2013-1-2,65,43,32,38,33,-18,96,73,10,29.92,29.80,97,0,97,0.00
2013-1-3,64,42,31,40,35,29,98,79,39,29.93,29.83,4,0,5,0.00
2013-1-4,66,45,33,48,37,28,97,77,39,29.96,29.84,3,0,4,0.00
2013-1-5,54,39,0,46,40,-22,99,76,10,29.94,29.75,97,0,11,0.50
2013-1-6,59,46,40,49,44,2,99,91,10,29.84,29.73,3,0,7,0.22
2013-1-7,54,44,38,45,41,32,99,91,66,29.91,29.79,4,0,8,0.01
2013-1-8,76,47,37,47,42,-9,99,83,47,29.91,29.79,4,0,100,1.51
2013-1-9,76,46,40,73,42,-6,99,85,63,29.83,29.57,99,1,99,0.00
2013-1-10,56,34,0,39,32,-11,97,51,10,29.81,29.67,6,1,14,0.00
2013-1-11,61,41,29,36,30,27,96,70,30,29.90,29.78,4,0,7,0.00
2013-1-12,56,41,32,34,27,17,86,62,23,29.91,29.80,4,1,9,0.00
2013-1-13,50,37,26,33,26,19,93,67,34,29.93,29.82,5,1,11,0.00
2013-1-14,56,41,32,27,22,16,76,49,22,30.08,29.86,6,1,49,0.00
2013-1-15,62,42,30,34,30,25,84,66,32,30.17,30.05,3,0,6,0.00
2013-1-16,81,44,29,39,33,19,95,68,10,30.11,29.93,49,2,49,0.00
2013-1-17,71,46,32,41,34,30,97,70,26,29.95,29.82,3,0,49,0.05
2013-1-18,109,47,34,43,34,3,97,68,10,29.91,29.80,97,3,97,0.05
2013-1-19,70,44,0,48,35,28,95,60,21,29.94,29.81,5,1,9,0.00
2013-1-20,72,53,28,40,32,9,95,52,10,29.91,29.78,4,0,52,0.38
2013-1-21,74,48,34,43,36,30,95,67,21,29.86,29.76,3,0,5,0.00
2013-1-22,69,49,36,43,40,35,96,73,36,29.82,29.67,4,0,97,0.00
2013-1-23,60,49,0,50,44,-3,98,80,10,29.75,29.63,5,1,53,0.14
2013-1-24,54,52,48,53,50,21,98,92,85,29.84,29.72,4,1,11,0.06
2013-1-25,74,59,52,58,54,52,99,84,53,29.84,29.67,5,0,8,0.01
2013-1-26,66,54,43,53,47,38,99,80,40,29.67,29.56,7,1,14,0.00
2013-1-27,62,47,36,42,37,32,97,70,36,29.81,29.65,7,1,12,0.00
2013-1-28,62,47,36,40,36,33,94,68,36,29.91,29.77,9,1,16,0.00
2013-1-29,66,50,38,41,38,34,92,67,32,29.99,29.87,9,1,14,0.00
2013-1-30,72,51,37,44,40,35,93,71,34,30.01,29.91,4,0,7,0.00
2013-1-31,73,53,38,48,43,37,96,73,38,29.97,29.84,4,0,7,0.00
2013-2-1,76,54,39,50,45,39,98,75,34,29.88,29.77,4,0,6,0.00
2013-2-2,72,53,43,47,44,18,96,75,38,29.94,29.84,3,0,7,0.19
2013-2-3,72,51,40,50,44,38,98,80,39,29.89,29.75,5,0,8,0.00
2013-2-4,71,52,40,49,45,39,99,78,43,29.83,29.69,5,1,8,0.05
2013-2-5,64,49,42,46,43,-10,97,81,52,29.77,29.67,100,1,100,0.19
2013-2-6,68,50,40,46,41,14,99,75,31,29.83,29.74,4,1,50,0.00
2013-2-7,63,48,39,48,40,33,96,75,38,29.80,29.63,8,1,14,0.01
2013-2-8,63,48,37,42,35,-12,96,64,26,29.65,29.55,8,2,15,0.00
2013-2-9,68,48,26,34,30,-12,76,54,21,29.74,29.60,6,1,50,0.00
2013-2-10,67,48,33,48,35,-14,93,65,31,29.79,29.64,6,1,14,0.00
2013-2-11,78,50,-4,36,32,-36,87,57,10,29.88,29.70,24,1,8,0.00
2013-2-12,70,45,0,40,35,-14,87,51,10,30.03,29.88,24,2,51,0.00
2013-2-13,72,52,-3,43,39,-21,89,64,31,29.99,29.85,4,0,11,0.00
2013-2-14,79,54,39,45,42,-32,94,67,27,29.91,29.80,7,1,11,0.00
2013-2-15,81,58,42,48,44,38,94,65,23,29.94,29.85,3,0,4,0.02
2013-2-16,78,56,43,46,42,37,90,64,24,29.90,29.66,8,1,99,0.00
2013-2-17,74,54,41,45,41,37,93,65,29,29.69,29.58,5,1,10,0.00
2013-2-18,62,49,38,46,40,36,95,74,53,29.65,29.55,9,2,19,0.00
2013-2-19,54,44,37,44,39,35,93,83,62,29.57,29.37,8,2,18,0.28
2013-2-20,66,47,33,41,34,26,97,65,25,29.67,29.46,8,2,16,0.01
2013-2-21,68,49,37,41,34,25,92,61,22,29.81,29.67,8,1,14,0.00
2013-2-22,73,53,36,43,36,30,88,58,20,29.90,29.78,5,1,10,0.00
2013-2-23,65,53,44,44,32,19,92,51,19,29.88,29.76,10,3,18,0.00
2013-2-24,73,52,40,32,26,16,64,40,12,29.89,29.79,8,2,17,0.00
2013-2-25,70,53,38,43,35,31,81,53,26,29.92,29.80,4,1,11,0.00
2013-2-26,49,44,42,34,32,31,71,64,53,29.84,29.82,2,0,5,0.00
2013-3-1,81,64,53,47,46,42,77,54,27,29.91,29.88,3,0,6,0.00
2013-3-2,78,62,49,52,48,44,87,64,35,29.89,29.69,3,0,7,0.00
2013-3-3,73,60,50,54,50,46,87,69,44,29.71,29.63,5,1,9,0.00
2013-3-4,71,50,44,53,46,40,98,86,49,29.77,29.66,5,1,11,0.00
2013-3-5,65,53,46,46,42,38,89,66,45,29.68,29.48,9,2,15,0.11
2013-3-6,64,53,47,47,41,33,94,66,32,29.70,29.48,9,3,17,0.19
2013-3-7,64,52,41,44,40,35,92,66,39,29.65,29.50,5,1,8,0.00
2013-3-8,61,47,42,42,38,36,86,74,41,29.50,29.45,5,1,11,0.00
2013-3-15,86,72,56,53,49,43,82,48,23,29.70,29.63,5,1,9,0.00
2013-3-16,84,64,47,53,45,20,96,60,11,29.71,29.60,6,1,11,0.00
2013-3-17,81,63,48,45,38,28,74,43,16,29.77,29.64,6,1,13,0.00
2013-3-18,73,59,44,49,42,34,90,57,26,29.75,29.64,4,1,10,0.00
2013-3-19,75,60,47,51,46,43,94,64,34,29.78,29.67,10,1,19,0.20
2013-3-20,66,57,50,58,54,49,99,88,67,29.75,29.70,5,1,14,0.32
2013-3-21,73,57,44,50,40,18,99,61,14,29.75,29.62,7,2,14,0.00
2013-3-22,70,58,46,30,22,7,47,29,10,29.74,29.64,12,4,22,0.00
2013-3-23,79,58,44,39,27,14,61,34,10,29.79,29.66,7,2,16,0.00
2013-3-24,84,61,42,48,37,20,82,48,11,29.73,29.57,4,0,9,0.00
2013-3-25,74,58,48,50,44,38,83,62,33,29.63,29.53,8,2,17,0.00
2013-3-26,79,60,45,50,46,42,90,62,29,29.63,29.53,6,2,11,0.00
2013-3-27,73,59,47,53,48,42,87,69,48,29.66,29.56,8,2,17,0.00
2013-3-28,81,63,54,54,52,48,88,70,33,29.73,29.65,4,1,8,0.00
2013-3-29,89,66,51,53,50,44,94,61,24,29.74,29.62,4,1,10,0.00
2013-3-30,80,64,52,57,52,48,92,66,35,29.68,29.59,7,1,11,0.00
2013-3-31,78,62,55,61,54,47,98,78,36,29.73,29.61,8,1,14,0.70
2013-4-1,76,63,53,59,53,48,99,74,39,29.79,29.69,5,1,9,0.02
2013-4-2,82,63,49,57,52,45,98,70,30,29.81,29.68,5,1,10,0.00
2013-4-3,87,66,49,56,51,44,95,64,23,29.77,29.59,3,0,6,0.00
2013-4-4,70,60,53,61,53,42,98,80,49,29.75,29.60,8,2,16,0.46
2013-4-5,72,61,51,56,52,50,98,77,50,29.80,29.72,7,2,12,0.00
2013-4-6,74,60,51,56,52,49,95,76,49,29.83,29.72,5,1,11,0.00
2013-4-7,71,59,51,56,50,45,92,72,53,29.78,29.44,11,3,22,0.00
2013-4-8,74,60,50,50,35,22,94,45,16,29.64,29.37,12,4,27,0.01
2013-4-9,81,64,50,40,33,20,59,35,11,29.72,29.64,11,3,24,0.00
2013-4-10,95,72,54,57,46,40,61,42,16,29.82,29.58,5,1,13,0.00
2013-4-11,86,70,56,54,42,20,87,43,10,29.62,29.43,6,1,14,0.00
2013-4-12,93,66,48,56,44,28,89,53,11,29.53,29.41,5,1,13,0.00
2013-4-13,88,65,50,54,48,38,83,58,18,29.50,29.39,5,1,8,0.00
2013-4-14,81,63,47,47,39,17,84,48,10,29.53,29.36,8,2,17,0.00
2013-4-15,68,56,46,48,43,31,92,65,34,29.53,29.42,7,1,14,0.00
2013-4-16,74,59,48,34,26,12,57,33,10,29.79,29.54,9,3,23,0.00
2013-4-17,77,60,44,35,25,13,65,32,10,29.90,29.80,8,3,21,0.00
2013-4-18,88,65,46,41,30,17,59,32,10,29.91,29.80,4,1,9,0.00
2013-4-19,93,68,48,53,44,38,79,47,16,29.87,29.66,4,0,8,0.00
2013-4-20,91,72,58,47,37,20,56,33,10,29.74,29.57,9,2,17,0.00
2013-4-21,98,72,50,51,43,29,82,44,10,29.67,29.53,4,1,9,0.00
2013-4-22,95,75,58,52,39,22,76,36,10,29.59,29.44,6,1,15,0.00
2013-4-23,96,74,59,46,28,16,54,21,10,29.56,29.43,9,2,19,0.00
2013-4-24,99,69,51,53,41,22,80,47,10,29.50,29.35,7,1,12,0.00
2013-4-25,79,62,51,53,49,46,85,63,37,29.72,29.49,6,1,11,0.00
2013-4-26,89,65,50,55,50,46,92,63,27,29.84,29.71,4,0,9,0.00
2013-4-27,97,70,51,58,52,47,90,59,20,29.85,29.64,4,0,7,0.00
2013-4-28,100,75,53,58,49,30,86,50,10,29.67,29.47,4,0,11,0.00
2013-4-29,100,78,62,58,47,30,78,40,10,29.51,29.34,3,0,14,0.00
2013-4-30,88,76,66,50,29,13,42,21,10,29.47,29.36,8,0,21,0.00
2013-5-1,96,76,60,39,25,14,34,16,10,29.70,29.47,4,0,18,0.00
2013-5-2,102,77,59,40,32,22,38,22,10,29.80,29.67,2,0,6,0.00
2013-5-3,102,77,56,49,41,29,65,34,10,29.68,29.37,3,0,8,0.00
2013-5-4,98,77,60,51,40,25,69,34,10,29.38,29.10,2,0,14,0.00
2013-5-5,85,67,56,51,49,46,76,54,28,29.43,29.17,5,0,17,0.00
2013-5-6,83,66,58,58,53,49,95,67,32,29.58,29.43,2,0,8,0.89
2013-5-7,79,66,57,58,54,50,97,68,38,29.65,29.58,4,0,8,0.00
2013-5-8,82,65,56,56,53,46,93,67,32,29.74,29.63,4,1,11,0.00
2013-5-9,92,66,52,60,54,49,92,67,32,29.76,29.64,6,0,14,0.00
2013-5-10,94,70,53,62,55,50,89,64,32,29.79,29.65,4,0,10,0.00
2013-5-11,103,77,58,62,57,53,83,55,23,29.73,29.62,2,0,8,0.00
2013-5-12,97,76,59,59,51,30,77,47,11,29.73,29.59,4,0,12,0.00
2013-5-13,100,75,58,61,53,37,74,51,14,29.67,29.51,3,0,8,0.00
2013-5-14,93,73,58,59,54,48,80,55,28,29.54,29.47,6,1,14,0.00
2013-5-15,84,67,55,52,49,47,76,55,29,29.63,29.54,7,1,14,0.00
2013-5-16,81,66,57,56,51,47,80,61,35,29.62,29.52,7,1,14,0.00
2013-5-17,83,64,50,53,47,38,86,57,23,29.67,29.56,5,1,12,0.00
2013-5-18,93,68,49,54,47,34,87,54,13,29.75,29.64,4,0,10,0.00
2013-5-19,94,74,58,53,43,27,82,40,10,29.73,29.57,2,0,17,0.00
2013-5-20,102,79,64,48,41,27,48,30,10,29.62,29.49,4,0,8,0.01
2013-5-21,85,70,59,50,46,20,68,45,10,29.56,29.45,8,2,15,0.00
2013-5-22,85,64,50,44,29,14,65,31,10,29.62,29.48,4,0,11,0.00
2013-5-23,86,64,48,46,39,18,78,47,10,29.60,29.49,4,0,8,0.00
2013-5-24,85,65,48,48,42,20,86,49,10,29.62,29.51,5,0,12,0.00
2013-5-25,85,65,51,51,47,38,80,56,22,29.62,29.55,6,1,12,0.00
2013-5-26,87,69,52,54,50,46,87,54,24,29.70,29.61,6,1,14,0.00
2013-5-27,74,61,53,57,52,47,95,72,51,29.71,29.61,5,0,11,0.01
2013-5-28,91,70,58,59,55,48,95,65,24,29.62,29.49,6,0,8,0.01
2013-5-29,93,71,57,58,53,32,94,58,13,29.55,29.46,6,1,10,0.11
2013-5-30,96,72,52,56,49,30,87,52,10,29.58,29.50,4,0,9,0.00
2013-5-31,103,77,55,55,45,30,85,41,10,29.62,29.49,4,0,11,0.00
2013-6-1,106,80,59,56,50,33,80,42,10,29.51,29.33,4,0,10,0.00
2013-6-2,108,80,61,57,52,36,76,43,10,29.35,29.21,4,0,8,0.00
2013-6-3,92,74,59,59,54,50,79,54,26,29.40,29.27,5,1,11,0.00
2013-6-4,88,69,57,58,54,50,81,61,36,29.50,29.39,7,1,12,0.00
2013-6-5,94,69,54,61,55,50,88,63,32,29.60,29.45,5,1,10,0.00
2013-6-6,102,73,55,64,56,51,88,62,26,29.54,29.39,4,1,10,0.00
2013-6-7,116,83,59,68,58,46,82,51,11,29.47,29.28,4,0,11,0.00
2013-6-8,119,88,68,66,60,53,74,45,13,29.33,29.20,4,0,10,0.00
2013-6-9,83,70,61,60,56,54,80,62,42,29.47,29.30,8,2,18,0.02
2013-6-10,79,66,59,56,54,53,84,67,42,29.57,29.42,7,2,14,0.00
2013-6-11,91,72,55,59,54,49,88,58,26,29.59,29.47,5,0,9,0.00
2013-6-12,94,73,59,60,51,43,77,50,18,29.56,29.48,5,1,12,0.00
2013-6-13,101,74,53,52,44,28,78,43,10,29.69,29.55,2,0,10,0.00
2013-6-14,104,78,65,54,43,28,62,33,10,29.59,29.40,3,0,13,0.00
2013-6-15,95,74,60,55,49,33,64,45,14,29.54,29.41,5,1,12,0.00
2013-6-16,101,75,55,55,50,43,80,48,16,29.65,29.54,4,0,9,0.00
2013-6-17,93,72,57,56,52,49,78,53,25,29.66,29.55,5,1,14,0.00
2013-6-18,84,68,56,55,52,45,87,60,28,29.60,29.50,6,1,16,0.00
2013-6-19,94,69,50,52,44,24,89,50,10,29.67,29.57,2,0,10,0.00
2013-6-20,97,72,54,54,48,31,83,49,10,29.59,29.50,4,0,9,0.00
2013-6-21,101,76,56,54,47,29,78,43,10,29.57,29.47,2,0,7,0.00
2013-6-22,102,78,57,56,48,32,81,42,10,29.53,29.39,4,0,11,0.00
2013-6-23,81,68,61,62,58,53,85,70,47,29.46,29.38,4,1,11,0.00
2013-6-24,71,65,61,64,60,56,97,85,65,29.54,29.39,4,0,10,0.04
2013-6-25,85,70,63,69,65,62,99,85,54,29.61,29.51,3,0,9,0.11
2013-6-26,98,77,62,67,63,56,99,66,25,29.66,29.57,3,0,9,0.00
2013-6-27,110,83,62,67,59,38,92,54,10,29.68,29.57,2,0,7,0.00
2013-6-28,115,88,68,68,61,53,78,47,15,29.61,29.45,2,0,7,0.00
2013-6-29,118,91,70,66,58,43,70,39,10,29.50,29.34,1,0,4,0.00
2013-6-30,113,89,70,65,59,49,69,42,14,29.42,29.30,2,0,9,0.00
2013-7-1,116,89,67,67,59,44,72,43,10,29.42,29.34,1,0,5,0.00
2013-7-2,109,88,75,66,61,56,66,43,21,29.45,29.36,4,0,11,0.00
2013-7-3,112,87,69,66,62,56,69,46,19,29.47,29.30,2,0,11,0.01
2013-7-4,118,92,75,68,62,46,67,42,11,29.33,29.19,2,0,8,0.00
2013-7-5,90,76,66,59,54,50,66,48,31,29.35,29.23,4,0,13,0.00
2013-7-6,96,73,58,60,55,49,85,57,23,29.39,29.28,2,0,9,0.00
2013-7-7,103,77,59,61,51,24,81,49,10,29.42,29.34,0,0,7,0.00
2013-7-8,105,78,58,58,48,28,82,46,10,29.54,29.42,1,0,7,0.00
2013-7-9,111,84,62,58,50,36,74,41,10,29.63,29.49,0,0,3,0.00
2013-7-10,102,80,63,60,51,31,72,44,10,29.55,29.43,2,0,12,0.00
2013-7-11,96,72,56,55,52,42,87,55,18,29.53,29.42,2,0,12,0.00
2013-7-12,97,73,56,59,54,50,88,58,22,29.54,29.42,2,0,8,0.00
2013-7-13,104,86,60,59,48,33,78,33,10,29.56,29.45,1,0,6,0.00
2013-7-14,103,77,61,59,52,37,74,47,11,29.57,29.44,1,0,8,0.00
2013-7-15,90,70,56,57,53,48,85,60,24,29.49,29.37,2,0,11,0.00
2013-7-16,84,67,56,58,54,53,90,67,37,29.61,29.44,4,0,13,0.04
2013-7-17,103,74,54,59,53,38,94,58,12,29.70,29.58,1,0,8,0.00
2013-7-18,108,78,58,59,52,36,87,51,10,29.65,29.48,0,0,2,0.00
2013-7-19,107,80,60,60,55,45,82,49,14,29.52,29.35,0,0,8,0.00
2013-7-20,105,79,60,62,57,52,81,51,21,29.43,29.25,1,0,6,0.00
2013-7-21,100,78,62,61,54,50,74,47,20,29.43,29.31,3,0,14,0.02
2013-7-22,95,79,66,57,52,28,72,43,12,29.55,29.43,4,0,15,0.05
2013-7-23,95,79,68,58,52,38,62,42,16,29.59,29.46,3,0,8,0.01
2013-7-24,105,82,64,63,56,50,75,47,18,29.57,29.43,0,0,2,0.00
2013-7-25,101,80,66,64,58,53,68,48,26,29.56,29.47,2,0,8,0.00
2013-7-26,101,76,61,62,57,54,81,55,25,29.66,29.52,2,0,9,0.00
2013-7-27,97,74,58,62,57,54,86,60,27,29.58,29.39,2,0,9,0.00
2013-7-28,93,72,58,62,57,53,90,63,32,29.45,29.33,3,0,11,0.00
2013-7-29,86,67,56,58,55,51,89,67,32,29.58,29.40,3,0,14,0.00
2013-7-30,98,72,55,61,55,37,90,62,15,29.69,29.57,1,0,8,0.00
2013-7-31,94,71,56,59,54,50,89,60,26,29.67,29.53,2,0,9,0.00
2013-8-1,93,72,58,57,52,46,81,55,21,29.65,29.51,2,0,9,0.00
2013-8-2,102,76,56,59,52,41,88,52,14,29.57,29.44,1,0,8,0.00
2013-8-3,100,74,58,58,54,45,84,55,17,29.57,29.46,1,0,7,0.00
2013-8-4,96,71,56,59,54,47,89,60,23,29.59,29.49,2,0,8,0.00
2013-8-5,99,71,55,58,53,38,92,60,13,29.62,29.48,2,0,8,0.00
2013-8-6,88,68,55,58,54,52,91,66,30,29.61,29.53,3,0,14,0.01
2013-8-7,84,67,57,60,56,53,88,70,42,29.69,29.60,3,0,13,0.01
2013-8-8,93,70,57,61,56,46,93,66,22,29.63,29.49,2,0,9,0.00
2013-8-9,88,69,56,60,56,53,92,68,35,29.57,29.49,2,0,9,0.00
2013-8-10,93,71,57,61,57,55,92,66,28,29.64,29.54,2,0,8,0.00
2013-8-11,99,74,58,62,57,51,95,63,21,29.62,29.48,0,0,5,0.00
2013-8-12,100,75,59,60,54,39,87,56,13,29.59,29.50,0,0,6,0.00
2013-8-13,107,79,59,58,51,37,82,46,10,29.59,29.46,0,0,3,0.00
2013-8-14,104,78,58,60,54,46,80,50,15,29.56,29.44,0,0,7,0.00
2013-8-15,105,78,62,65,61,52,89,60,18,29.55,29.46,2,0,6,0.00
2013-8-16,104,80,63,67,60,52,94,58,18,29.57,29.48,1,0,8,0.00
2013-8-17,104,78,65,62,58,54,77,53,20,29.57,29.40,1,0,8,0.00
2013-8-18,112,83,64,65,60,52,83,51,15,29.49,29.34,0,0,2,0.00
2013-8-19,114,87,72,66,61,49,71,47,13,29.48,29.33,1,0,8,0.00
2013-8-20,102,79,67,65,60,56,75,55,28,29.47,29.34,1,0,9,0.00
2013-8-21,97,74,62,60,55,38,82,56,15,29.51,29.41,2,0,11,0.01
2013-8-22,91,72,59,59,55,51,86,59,26,29.54,29.43,3,0,11,0.00
2013-8-23,98,73,57,60,56,50,91,61,22,29.52,29.35,2,0,9,0.00
2013-8-24,94,74,61,60,56,52,79,59,26,29.47,29.39,3,0,13,0.01
2013-8-25,93,75,64,66,61,58,89,65,33,29.54,29.45,2,0,11,0.00
2013-8-26,98,74,61,61,56,45,91,61,19,29.61,29.47,1,0,8,0.00
2013-8-27,100,75,58,60,55,46,90,56,18,29.50,29.37,2,0,11,0.01
2013-8-28,100,76,61,64,59,48,90,61,18,29.51,29.42,4,0,8,0.00
2013-8-29,101,77,62,65,61,53,94,64,21,29.64,29.50,2,0,8,0.00
2013-8-30,108,80,60,67,58,39,96,56,12,29.64,29.47,2,0,6,0.00
2013-8-31,100,78,62,62,55,40,83,51,14,29.55,29.44,4,1,10,0.00
2013-9-1,96,76,63,61,56,41,79,55,17,29.53,29.43,5,1,13,0.00
2013-9-2,83,72,68,70,64,61,94,76,54,29.56,29.47,2,0,6,0.12
2013-9-3,92,74,62,62,57,45,89,61,22,29.59,29.49,4,0,11,0.01
2013-9-4,95,74,60,61,57,43,89,61,17,29.63,29.50,4,0,11,0.00
2013-9-5,94,73,60,61,56,45,89,61,19,29.60,29.50,4,0,10,0.00
2013-9-6,103,76,58,60,52,37,91,52,11,29.59,29.42,2,0,6,0.00
2013-9-7,110,81,59,56,49,35,81,43,10,29.50,29.37,2,0,5,0.00
2013-9-8,112,83,61,58,51,35,80,43,10,29.46,29.30,2,0,7,0.00
2013-9-9,113,84,64,58,53,40,77,43,10,29.39,29.22,3,0,7,0.00
2013-9-10,92,74,64,63,59,54,83,62,34,29.46,29.27,8,1,15,0.00
2013-9-11,86,70,60,62,60,57,90,71,41,29.58,29.45,6,1,13,0.00
2013-9-12,98,73,60,64,60,57,96,69,27,29.58,29.43,4,1,11,0.00
2013-9-13,100,75,60,64,59,56,93,64,26,29.48,29.29,4,1,10,0.00
2013-9-14,93,72,60,62,58,55,87,63,33,29.54,29.27,4,1,10,0.00
2013-9-15,97,71,57,59,56,49,92,64,21,29.44,29.32,5,1,11,0.00
2013-9-16,98,74,59,64,58,50,97,65,21,29.49,29.34,4,0,11,0.00
2013-9-17,92,72,60,57,54,46,85,59,22,29.48,29.38,4,1,12,0.00
2013-9-18,96,74,62,56,46,32,78,43,11,29.52,29.39,3,0,8,0.00
2013-9-19,103,74,54,53,46,33,80,46,10,29.47,29.32,2,0,4,0.00
2013-9-20,87,70,58,62,54,45,82,59,32,29.46,29.33,8,1,17,0.00
2013-9-21,71,63,56,64,59,56,99,87,60,29.50,29.41,4,0,9,0.48
2013-9-22,86,66,55,58,55,49,99,72,30,29.62,29.50,4,0,10,0.00
2013-9-23,95,71,54,60,56,48,99,65,22,29.64,29.51,2,0,5,0.00
2013-9-24,90,69,58,58,56,51,89,66,30,29.58,29.44,7,1,16,0.00
2013-9-25,84,65,52,54,45,30,94,56,16,29.54,29.41,4,0,10,0.00
2013-9-26,82,66,53,44,40,32,68,43,18,29.60,29.43,3,0,11,0.00
2013-9-27,89,66,51,47,40,26,71,44,12,29.73,29.60,2,0,8,0.00
2013-9-28,92,69,51,54,40,26,70,42,11,29.73,29.59,3,0,8,0.00
2013-9-29,84,68,56,61,58,53,92,71,43,29.73,29.63,6,1,12,0.00
2013-9-30,85,70,62,63,61,30,92,74,46,29.69,29.55,5,0,11,0.00
2013-10-1,88,67,53,58,50,45,91,60,24,29.63,29.51,3,0,6,0.00
2013-10-2,90,68,55,52,46,37,80,49,17,29.62,29.51,4,0,8,0.00
2013-10-3,79,66,55,41,34,-47,57,34,16,29.66,29.53,4,0,24,0.04
2013-10-4,87,70,59,37,32,22,41,27,10,29.73,29.61,3,0,17,0.00
2013-10-5,94,67,50,46,35,21,65,37,10,29.85,29.73,2,0,5,0.00
2013-10-6,94,66,47,49,41,24,84,49,10,29.78,29.61,3,0,6,0.00
2013-10-7,96,69,52,48,40,24,76,43,10,29.62,29.45,2,0,4,0.00
2013-10-8,85,65,54,46,41,31,73,46,15,29.52,29.27,3,0,8,0.00
2013-10-9,84,65,53,44,40,36,66,42,19,29.36,29.20,3,0,8,0.00
2013-10-10,84,63,52,49,45,40,79,56,23,29.61,29.36,5,0,12,0.00
2013-10-11,85,63,50,52,48,43,90,62,24,29.69,29.57,4,0,6,0.00
2013-10-12,85,62,48,52,47,40,94,63,21,29.63,29.47,6,1,11,0.00
2013-10-13,83,64,52,49,44,37,78,52,21,29.67,29.50,4,0,11,0.00
2013-10-14,87,64,48,45,41,32,79,48,15,29.76,29.62,4,0,7,0.00
2013-10-15,89,65,48,44,37,24,79,43,10,29.69,29.56,4,0,9,0.00
2013-10-16,91,65,48,47,40,27,76,47,11,29.74,29.61,2,0,5,0.00
2013-10-17,89,65,49,46,42,25,80,50,11,29.72,29.57,4,0,7,0.00
2013-10-18,92,65,47,49,42,32,76,50,13,29.69,29.58,3,0,6,0.00
2013-10-19,94,66,48,49,45,33,86,54,13,29.71,29.59,4,0,7,0.00
2013-10-20,94,66,47,48,44,31,89,53,12,29.64,29.49,3,0,6,0.00
2013-10-21,93,67,50,51,46,39,85,53,17,29.62,29.51,2,0,4,0.00
2013-10-22,93,67,51,52,47,39,86,56,16,29.64,29.50,4,0,7,0.00
2013-10-23,93,66,49,51,46,31,93,59,12,29.60,29.45,3,0,6,0.00
2013-10-24,80,59,49,52,49,46,95,72,37,29.68,29.52,4,1,9,0.00
2013-10-25,86,62,46,53,48,43,96,67,24,29.80,29.67,2,0,7,0.00
2013-10-26,88,63,48,52,47,42,88,61,21,29.78,29.61,3,0,7,0.00
2013-10-27,73,57,46,52,47,42,87,71,45,29.62,29.19,13,2,25,0.00
2013-10-28,74,57,46,48,45,37,95,68,30,29.47,29.21,5,0,9,0.00
2013-10-29,72,58,50,50,47,44,82,66,39,29.67,29.47,3,0,7,0.00
2013-10-30,74,56,44,50,45,43,96,70,35,29.78,29.66,4,0,10,0.00
2013-10-31,84,58,42,48,44,40,92,66,25,29.81,29.69,3,0,7,0.00
2013-11-1,85,61,46,50,45,40,93,64,22,29.81,29.63,4,0,7,0.00
2013-11-2,84,61,45,52,46,38,85,62,31,29.65,29.47,4,1,8,0.00
2013-11-3,68,58,50,38,30,25,49,36,21,29.66,29.52,11,4,17,0.00
2013-11-4,72,58,42,35,31,23,67,38,16,29.68,29.51,11,3,21,0.00
2013-11-5,81,58,45,36,33,22,64,41,13,29.86,29.67,6,1,11,0.00
2013-11-6,82,60,46,44,38,2,75,49,17,29.92,29.80,4,0,6,0.00
2013-11-7,86,62,49,46,41,32,80,52,16,29.81,29.67,4,0,54,0.00
2013-11-8,86,61,45,48,41,32,78,53,17,29.70,29.55,3,0,5,0.00
2013-11-9,84,60,45,48,44,41,87,61,24,29.67,29.59,3,0,5,0.00
2013-11-10,86,60,45,48,44,16,89,63,22,29.73,29.65,3,0,4,0.00
2013-11-11,80,58,44,51,46,43,98,69,28,29.79,29.70,2,0,4,0.00
2013-11-12,76,62,52,47,44,40,76,55,28,29.91,29.76,4,0,8,0.00
2013-11-13,86,61,46,48,45,42,90,62,23,29.87,29.67,5,0,9,0.00
2013-11-14,74,57,49,55,48,43,92,74,50,29.71,29.44,4,0,7,0.00
2013-11-15,74,56,44,47,39,28,98,59,19,29.46,29.32,8,1,14,0.00
2013-11-16,75,54,44,45,40,35,84,62,27,29.55,29.37,5,0,9,0.00
2013-11-17,75,53,40,50,44,37,90,73,38,29.71,29.50,3,0,5,0.00
2013-11-18,68,53,42,51,46,41,96,78,52,29.78,29.69,5,1,10,0.00
2013-11-19,66,56,50,55,51,48,99,84,63,29.73,29.58,3,0,8,0.32
2013-11-20,58,56,54,58,56,54,99,99,99,29.59,29.46,3,0,8,0.31
2013-11-21,65,56,50,54,37,26,99,54,29,29.65,29.50,14,5,27,0.01
2013-11-22,75,57,45,43,25,10,89,35,10,29.68,29.54,11,3,23,0.00
2013-11-23,71,52,40,50,44,40,99,78,40,29.75,29.63,4,0,8,0.00
2013-11-24,71,52,40,46,43,38,97,75,39,29.89,29.74,4,0,7,0.00
2013-11-25,72,52,40,46,43,39,99,75,38,29.99,29.89,3,0,6,0.00
2013-11-26,69,51,41,47,42,40,98,74,42,29.92,29.69,3,0,6,0.00
2013-11-27,69,54,44,48,44,41,94,72,44,29.69,29.49,4,1,8,0.00
2013-11-28,80,57,45,47,43,-38,92,64,10,29.69,29.51,4,0,7,0.00
2013-11-29,80,56,42,46,42,39,94,66,25,29.85,29.69,4,0,7,0.05
2013-11-30,75,55,43,46,43,39,92,68,32,29.92,29.81,3,0,7,0.00
2013-12-1,89,55,41,48,43,-10,96,69,10,29.99,29.84,2,0,49,0.05
2013-12-2,71,54,42,49,46,40,94,76,43,29.86,29.52,6,1,12,0.00
2013-12-3,61,52,42,53,34,-5,97,56,18,29.56,29.43,11,2,23,0.00
2013-12-4,58,42,32,24,18,9,67,41,16,29.72,29.55,8,2,17,0.00
2013-12-5,58,40,31,22,19,-18,67,46,17,29.81,29.71,49,1,49,0.00
2013-12-6,53,39,28,38,29,20,95,68,39,29.86,29.55,7,1,18,0.45
2013-12-7,54,41,32,42,33,27,99,77,40,29.89,29.53,6,1,17,0.02
2013-12-8,49,36,29,29,26,22,95,69,39,29.98,29.88,7,2,13,0.00
2013-12-9,58,38,25,32,26,21,90,66,30,30.09,29.96,4,0,6,0.00
2013-12-10,61,40,28,32,28,25,95,66,27,30.08,29.85,4,0,7,0.00
2013-12-11,68,44,30,37,30,28,93,65,25,29.93,29.83,4,0,6,0.00
2013-12-12,69,45,31,39,33,28,95,67,26,29.93,29.80,4,0,7,0.00
2013-12-13,69,46,34,37,34,31,94,66,26,29.98,29.86,4,1,8,0.00
2013-12-14,69,47,34,40,35,30,91,66,29,30.07,29.96,3,0,6,0.00
2013-12-15,70,47,33,42,36,32,98,70,30,30.03,29.89,3,0,5,0.00
2013-12-16,75,49,35,44,38,33,94,69,27,29.91,29.78,2,0,4,0.00
2013-12-17,70,50,39,44,40,37,92,71,36,29.85,29.66,3,0,5,0.00
2013-12-18,64,51,42,46,42,39,91,75,45,29.67,29.33,4,0,6,0.00
2013-12-19,64,51,43,44,32,18,98,56,23,29.55,29.30,17,4,27,0.00
2013-12-20,69,49,39,35,21,8,78,37,10,29.65,29.53,10,2,16,0.00
2013-12-21,67,48,36,40,34,32,87,63,29,29.75,29.60,6,0,8,0.00
2013-12-22,73,50,35,42,36,32,91,65,28,29.94,29.74,2,0,4,0.00
2013-12-23,71,52,38,44,39,34,91,66,32,30.07,29.93,4,1,7,0.00
2013-12-24,76,52,38,45,40,36,93,68,30,29.98,29.85,4,0,6,0.00
2013-12-25,71,50,36,45,40,34,97,73,36,29.97,29.85,3,0,6,0.00
2013-12-26,75,50,36,44,37,34,98,68,25,29.93,29.82,4,0,5,0.00
2013-12-27,63,47,36,41,37,33,91,70,41,29.91,29.76,2,0,6,0.00
2013-12-28,74,50,34,38,33,8,97,60,19,29.78,29.63,8,2,18,0.00
2013-12-29,72,49,34,41,36,30,87,65,30,29.85,29.72,4,0,6,0.00
2013-12-30,71,50,36,41,37,31,95,66,29,29.91,29.83,2,0,24,0.00
2013-12-31,70,50,-13,40,36,-41,88,63,22,29.92,29.79,4,1,7,0.00
2014-1-1,70,48,34,39,34,6,86,62,10,29.87,29.76,2,0,49,0.00
2014-1-2,75,51,38,42,36,34,92,62,24,29.84,29.69,4,0,7,0.00